sensor_id;sensor_type;location;lat;lon;timestamp;P1;durP1;ratioP1;P2;durP2;ratioP2
76459;SDS011;65299;46.084;18.762;2023-05-20T00:00:57;13.93;;;8.33;;
76459;SDS011;65299;46.084;18.762;2023-05-20T00:03:58;14.15;;;8.38;;
76459;SDS011;65299;46.084;18.762;2023-05-20T00:06:58;16.00;;;8.80;;
76459;SDS011;65299;46.084;18.762;2023-05-20T00:09:58;16.40;;;9.30;;
76459;SDS011;65299;46.084;18.762;2023-05-20T00:12:59;13.10;;;8.50;;
76459;SDS011;65299;46.084;18.762;2023-05-20T00:15:59;12.05;;;8.70;;
76459;SDS011;65299;46.084;18.762;2023-05-20T00:19:00;14.53;;;9.20;;
76459;SDS011;65299;46.084;18.762;2023-05-20T00:22:00;16.37;;;8.60;;
76459;SDS011;65299;46.084;18.762;2023-05-20T00:25:01;14.50;;;8.43;;
76459;SDS011;65299;46.084;18.762;2023-05-20T00:28:01;16.80;;;8.40;;
76459;SDS011;65299;46.084;18.762;2023-05-20T00:31:01;17.03;;;8.73;;
76459;SDS011;65299;46.084;18.762;2023-05-20T00:34:02;13.70;;;7.93;;
76459;SDS011;65299;46.084;18.762;2023-05-20T00:37:02;16.77;;;8.10;;
76459;SDS011;65299;46.084;18.762;2023-05-20T00:40:03;14.35;;;7.97;;
76459;SDS011;65299;46.084;18.762;2023-05-20T00:43:04;14.40;;;8.25;;
76459;SDS011;65299;46.084;18.762;2023-05-20T00:46:05;16.93;;;9.47;;
76459;SDS011;65299;46.084;18.762;2023-05-20T00:49:05;14.97;;;8.57;;
76459;SDS011;65299;46.084;18.762;2023-05-20T00:52:05;14.87;;;7.30;;
76459;SDS011;65299;46.084;18.762;2023-05-20T00:55:07;15.30;;;8.10;;
76459;SDS011;65299;46.084;18.762;2023-05-20T00:58:08;21.30;;;9.30;;
76459;SDS011;65299;46.084;18.762;2023-05-20T01:01:08;20.37;;;8.33;;
76459;SDS011;65299;46.084;18.762;2023-05-20T01:04:09;15.57;;;7.87;;
76459;SDS011;65299;46.084;18.762;2023-05-20T01:07:09;16.05;;;8.43;;
76459;SDS011;65299;46.084;18.762;2023-05-20T01:10:10;15.07;;;8.80;;
76459;SDS011;65299;46.084;18.762;2023-05-20T01:13:11;14.03;;;7.60;;
76459;SDS011;65299;46.084;18.762;2023-05-20T01:16:16;15.95;;;8.52;;
76459;SDS011;65299;46.084;18.762;2023-05-20T01:19:34;18.38;;;8.32;;
76459;SDS011;65299;46.084;18.762;2023-05-20T01:22:38;17.48;;;8.13;;
76459;SDS011;65299;46.084;18.762;2023-05-20T01:25:55;12.85;;;7.95;;
76459;SDS011;65299;46.084;18.762;2023-05-20T01:28:56;15.57;;;7.50;;
76459;SDS011;65299;46.084;18.762;2023-05-20T01:31:56;14.83;;;8.57;;
76459;SDS011;65299;46.084;18.762;2023-05-20T01:34:59;15.98;;;8.32;;
76459;SDS011;65299;46.084;18.762;2023-05-20T01:38:00;19.95;;;7.68;;
76459;SDS011;65299;46.084;18.762;2023-05-20T01:41:04;13.27;;;7.53;;
76459;SDS011;65299;46.084;18.762;2023-05-20T01:44:06;22.27;;;7.97;;
76459;SDS011;65299;46.084;18.762;2023-05-20T01:47:06;14.80;;;8.43;;
76459;SDS011;65299;46.084;18.762;2023-05-20T01:50:07;17.73;;;7.30;;
76459;SDS011;65299;46.084;18.762;2023-05-20T01:53:08;11.18;;;7.00;;
76459;SDS011;65299;46.084;18.762;2023-05-20T01:56:08;17.90;;;8.00;;
76459;SDS011;65299;46.084;18.762;2023-05-20T01:59:09;10.50;;;7.13;;
76459;SDS011;65299;46.084;18.762;2023-05-20T02:02:09;12.90;;;7.20;;
76459;SDS011;65299;46.084;18.762;2023-05-20T02:05:09;13.10;;;7.67;;
76459;SDS011;65299;46.084;18.762;2023-05-20T02:08:10;12.47;;;7.57;;
76459;SDS011;65299;46.084;18.762;2023-05-20T02:11:10;14.00;;;8.47;;
76459;SDS011;65299;46.084;18.762;2023-05-20T02:14:11;15.18;;;7.85;;
76459;SDS011;65299;46.084;18.762;2023-05-20T02:17:15;18.03;;;8.83;;
76459;SDS011;65299;46.084;18.762;2023-05-20T02:20:16;12.90;;;7.88;;
76459;SDS011;65299;46.084;18.762;2023-05-20T02:23:17;14.07;;;7.10;;
76459;SDS011;65299;46.084;18.762;2023-05-20T02:26:17;14.03;;;7.23;;
76459;SDS011;65299;46.084;18.762;2023-05-20T02:29:19;13.82;;;7.78;;
76459;SDS011;65299;46.084;18.762;2023-05-20T02:32:21;12.27;;;7.95;;
76459;SDS011;65299;46.084;18.762;2023-05-20T02:35:26;13.60;;;7.63;;
76459;SDS011;65299;46.084;18.762;2023-05-20T02:38:27;15.60;;;8.83;;
76459;SDS011;65299;46.084;18.762;2023-05-20T02:41:28;16.38;;;9.75;;
76459;SDS011;65299;46.084;18.762;2023-05-20T02:44:28;18.63;;;9.50;;
76459;SDS011;65299;46.084;18.762;2023-05-20T02:47:29;15.20;;;9.23;;
76459;SDS011;65299;46.084;18.762;2023-05-20T02:50:29;14.40;;;8.80;;
76459;SDS011;65299;46.084;18.762;2023-05-20T02:53:29;14.97;;;10.07;;
76459;SDS011;65299;46.084;18.762;2023-05-20T02:56:30;15.63;;;8.70;;
76459;SDS011;65299;46.084;18.762;2023-05-20T02:59:31;16.58;;;9.57;;
76459;SDS011;65299;46.084;18.762;2023-05-20T03:02:32;18.10;;;9.07;;
76459;SDS011;65299;46.084;18.762;2023-05-20T03:05:32;14.82;;;8.85;;
76459;SDS011;65299;46.084;18.762;2023-05-20T03:08:37;17.90;;;10.10;;
76459;SDS011;65299;46.084;18.762;2023-05-20T03:11:38;17.05;;;9.38;;
76459;SDS011;65299;46.084;18.762;2023-05-20T03:14:38;16.20;;;9.30;;
76459;SDS011;65299;46.084;18.762;2023-05-20T03:17:39;15.07;;;9.63;;
76459;SDS011;65299;46.084;18.762;2023-05-20T03:20:39;15.67;;;9.20;;
76459;SDS011;65299;46.084;18.762;2023-05-20T03:23:41;14.43;;;8.88;;
76459;SDS011;65299;46.084;18.762;2023-05-20T03:26:41;13.53;;;9.53;;
76459;SDS011;65299;46.084;18.762;2023-05-20T03:29:42;15.75;;;9.88;;
76459;SDS011;65299;46.084;18.762;2023-05-20T03:32:43;14.88;;;9.73;;
76459;SDS011;65299;46.084;18.762;2023-05-20T03:35:43;16.40;;;9.10;;
76459;SDS011;65299;46.084;18.762;2023-05-20T03:38:44;15.50;;;9.57;;
76459;SDS011;65299;46.084;18.762;2023-05-20T03:41:44;14.50;;;9.63;;
76459;SDS011;65299;46.084;18.762;2023-05-20T03:44:44;17.27;;;9.27;;
76459;SDS011;65299;46.084;18.762;2023-05-20T03:47:45;20.40;;;10.20;;
76459;SDS011;65299;46.084;18.762;2023-05-20T03:50:45;17.83;;;9.37;;
76459;SDS011;65299;46.084;18.762;2023-05-20T03:53:46;18.87;;;10.17;;
76459;SDS011;65299;46.084;18.762;2023-05-20T03:56:46;17.33;;;9.27;;
76459;SDS011;65299;46.084;18.762;2023-05-20T03:59:48;13.93;;;8.80;;
76459;SDS011;65299;46.084;18.762;2023-05-20T04:02:48;13.35;;;7.97;;
76459;SDS011;65299;46.084;18.762;2023-05-20T04:05:49;14.67;;;8.40;;
76459;SDS011;65299;46.084;18.762;2023-05-20T04:08:50;11.37;;;8.07;;
76459;SDS011;65299;46.084;18.762;2023-05-20T04:11:51;12.57;;;8.00;;
76459;SDS011;65299;46.084;18.762;2023-05-20T04:14:52;13.73;;;8.37;;
76459;SDS011;65299;46.084;18.762;2023-05-20T04:17:54;14.40;;;8.13;;
76459;SDS011;65299;46.084;18.762;2023-05-20T04:20:54;14.50;;;7.80;;
76459;SDS011;65299;46.084;18.762;2023-05-20T04:23:55;11.60;;;7.50;;
76459;SDS011;65299;46.084;18.762;2023-05-20T04:26:55;13.43;;;7.43;;
76459;SDS011;65299;46.084;18.762;2023-05-20T04:29:56;11.77;;;7.78;;
76459;SDS011;65299;46.084;18.762;2023-05-20T04:32:57;12.53;;;8.10;;
76459;SDS011;65299;46.084;18.762;2023-05-20T04:36:01;18.25;;;9.27;;
76459;SDS011;65299;46.084;18.762;2023-05-20T04:39:03;16.05;;;8.90;;
76459;SDS011;65299;46.084;18.762;2023-05-20T04:42:04;13.93;;;8.13;;
76459;SDS011;65299;46.084;18.762;2023-05-20T04:45:05;14.98;;;8.80;;
76459;SDS011;65299;46.084;18.762;2023-05-20T04:48:07;15.83;;;9.17;;
76459;SDS011;65299;46.084;18.762;2023-05-20T04:51:08;15.48;;;9.30;;
76459;SDS011;65299;46.084;18.762;2023-05-20T04:54:09;16.05;;;8.82;;
76459;SDS011;65299;46.084;18.762;2023-05-20T04:57:10;15.03;;;9.47;;
76459;SDS011;65299;46.084;18.762;2023-05-20T05:00:11;14.70;;;8.15;;
76459;SDS011;65299;46.084;18.762;2023-05-20T05:03:12;17.00;;;8.75;;
76459;SDS011;65299;46.084;18.762;2023-05-20T05:06:12;13.83;;;8.80;;
76459;SDS011;65299;46.084;18.762;2023-05-20T05:09:12;15.73;;;9.53;;
76459;SDS011;65299;46.084;18.762;2023-05-20T05:12:13;14.23;;;9.57;;
76459;SDS011;65299;46.084;18.762;2023-05-20T05:15:13;16.98;;;10.15;;
76459;SDS011;65299;46.084;18.762;2023-05-20T05:18:14;15.23;;;9.40;;
76459;SDS011;65299;46.084;18.762;2023-05-20T05:21:17;15.43;;;9.02;;
76459;SDS011;65299;46.084;18.762;2023-05-20T05:24:17;17.20;;;10.07;;
76459;SDS011;65299;46.084;18.762;2023-05-20T05:27:18;16.60;;;10.33;;
76459;SDS011;65299;46.084;18.762;2023-05-20T05:30:18;13.33;;;9.37;;
76459;SDS011;65299;46.084;18.762;2023-05-20T05:33:21;15.70;;;9.95;;
76459;SDS011;65299;46.084;18.762;2023-05-20T05:36:22;12.25;;;8.75;;
76459;SDS011;65299;46.084;18.762;2023-05-20T05:39:24;15.23;;;8.98;;
76459;SDS011;65299;46.084;18.762;2023-05-20T05:42:25;13.37;;;8.90;;
76459;SDS011;65299;46.084;18.762;2023-05-20T05:45:25;13.07;;;9.00;;
76459;SDS011;65299;46.084;18.762;2023-05-20T05:48:26;12.83;;;8.43;;
76459;SDS011;65299;46.084;18.762;2023-05-20T05:51:26;15.40;;;8.30;;
76459;SDS011;65299;46.084;18.762;2023-05-20T05:54:28;12.75;;;8.88;;
76459;SDS011;65299;46.084;18.762;2023-05-20T05:57:28;12.50;;;7.53;;
76459;SDS011;65299;46.084;18.762;2023-05-20T06:00:28;11.90;;;7.93;;
76459;SDS011;65299;46.084;18.762;2023-05-20T06:03:29;13.87;;;7.37;;
76459;SDS011;65299;46.084;18.762;2023-05-20T06:06:30;12.27;;;7.93;;
76459;SDS011;65299;46.084;18.762;2023-05-20T06:09:30;12.87;;;8.13;;
76459;SDS011;65299;46.084;18.762;2023-05-20T06:12:31;12.30;;;8.73;;
76459;SDS011;65299;46.084;18.762;2023-05-20T06:15:31;12.95;;;7.72;;
76459;SDS011;65299;46.084;18.762;2023-05-20T06:18:31;13.17;;;7.93;;
76459;SDS011;65299;46.084;18.762;2023-05-20T06:21:32;11.07;;;7.33;;
76459;SDS011;65299;46.084;18.762;2023-05-20T06:24:33;11.13;;;7.13;;
76459;SDS011;65299;46.084;18.762;2023-05-20T06:27:33;10.00;;;6.95;;
76459;SDS011;65299;46.084;18.762;2023-05-20T06:30:33;9.83;;;6.90;;
76459;SDS011;65299;46.084;18.762;2023-05-20T06:33:34;10.40;;;7.10;;
76459;SDS011;65299;46.084;18.762;2023-05-20T06:36:35;10.93;;;7.60;;
76459;SDS011;65299;46.084;18.762;2023-05-20T06:39:36;10.82;;;7.15;;
76459;SDS011;65299;46.084;18.762;2023-05-20T06:42:37;10.70;;;7.20;;
76459;SDS011;65299;46.084;18.762;2023-05-20T06:45:37;11.10;;;7.15;;
76459;SDS011;65299;46.084;18.762;2023-05-20T06:48:37;10.20;;;6.83;;
76459;SDS011;65299;46.084;18.762;2023-05-20T06:51:38;10.43;;;7.23;;
76459;SDS011;65299;46.084;18.762;2023-05-20T06:54:38;11.37;;;7.50;;
76459;SDS011;65299;46.084;18.762;2023-05-20T06:57:40;9.02;;;6.65;;
76459;SDS011;65299;46.084;18.762;2023-05-20T07:00:40;9.40;;;6.80;;
76459;SDS011;65299;46.084;18.762;2023-05-20T07:03:41;8.98;;;7.05;;
76459;SDS011;65299;46.084;18.762;2023-05-20T07:06:43;10.33;;;6.83;;
76459;SDS011;65299;46.084;18.762;2023-05-20T07:09:43;9.27;;;6.90;;
76459;SDS011;65299;46.084;18.762;2023-05-20T07:12:44;9.13;;;6.17;;
76459;SDS011;65299;46.084;18.762;2023-05-20T07:15:45;12.13;;;6.55;;
76459;SDS011;65299;46.084;18.762;2023-05-20T07:18:46;10.97;;;7.33;;
76459;SDS011;65299;46.084;18.762;2023-05-20T07:21:46;11.75;;;6.95;;
76459;SDS011;65299;46.084;18.762;2023-05-20T07:24:48;11.13;;;7.20;;
76459;SDS011;65299;46.084;18.762;2023-05-20T07:27:49;12.23;;;7.40;;
76459;SDS011;65299;46.084;18.762;2023-05-20T07:30:49;13.13;;;7.00;;
76459;SDS011;65299;46.084;18.762;2023-05-20T07:33:49;10.10;;;6.57;;
76459;SDS011;65299;46.084;18.762;2023-05-20T07:36:50;9.40;;;6.73;;
76459;SDS011;65299;46.084;18.762;2023-05-20T07:39:50;10.32;;;7.35;;
76459;SDS011;65299;46.084;18.762;2023-05-20T07:42:51;9.83;;;6.30;;
76459;SDS011;65299;46.084;18.762;2023-05-20T07:45:51;10.53;;;6.87;;
76459;SDS011;65299;46.084;18.762;2023-05-20T07:48:51;8.40;;;6.47;;
76459;SDS011;65299;46.084;18.762;2023-05-20T07:51:52;12.03;;;7.23;;
76459;SDS011;65299;46.084;18.762;2023-05-20T07:54:52;11.63;;;7.10;;
76459;SDS011;65299;46.084;18.762;2023-05-20T07:57:53;11.23;;;7.50;;
76459;SDS011;65299;46.084;18.762;2023-05-20T08:00:53;9.13;;;6.63;;
76459;SDS011;65299;46.084;18.762;2023-05-20T08:03:54;7.30;;;5.50;;
76459;SDS011;65299;46.084;18.762;2023-05-20T08:06:54;7.32;;;5.47;;
76459;SDS011;65299;46.084;18.762;2023-05-20T08:09:55;8.60;;;5.90;;
76459;SDS011;65299;46.084;18.762;2023-05-20T08:12:56;8.75;;;6.25;;
76459;SDS011;65299;46.084;18.762;2023-05-20T08:15:57;9.23;;;5.40;;
76459;SDS011;65299;46.084;18.762;2023-05-20T08:18:57;7.50;;;5.43;;
76459;SDS011;65299;46.084;18.762;2023-05-20T08:21:57;7.97;;;6.10;;
76459;SDS011;65299;46.084;18.762;2023-05-20T08:24:58;7.77;;;6.00;;
76459;SDS011;65299;46.084;18.762;2023-05-20T08:28:01;10.37;;;5.70;;
76459;SDS011;65299;46.084;18.762;2023-05-20T08:31:05;8.15;;;5.75;;
76459;SDS011;65299;46.084;18.762;2023-05-20T08:34:06;7.30;;;5.70;;
76459;SDS011;65299;46.084;18.762;2023-05-20T08:37:06;7.60;;;5.53;;
76459;SDS011;65299;46.084;18.762;2023-05-20T08:40:07;9.37;;;5.80;;
76459;SDS011;65299;46.084;18.762;2023-05-20T08:43:08;6.63;;;5.82;;
76459;SDS011;65299;46.084;18.762;2023-05-20T08:46:09;9.45;;;5.80;;
76459;SDS011;65299;46.084;18.762;2023-05-20T08:49:10;8.47;;;5.70;;
76459;SDS011;65299;46.084;18.762;2023-05-20T08:52:11;8.15;;;5.95;;
76459;SDS011;65299;46.084;18.762;2023-05-20T08:55:25;9.60;;;5.67;;
76459;SDS011;65299;46.084;18.762;2023-05-20T08:58:28;8.82;;;5.60;;
76459;SDS011;65299;46.084;18.762;2023-05-20T09:01:29;7.45;;;5.63;;
76459;SDS011;65299;46.084;18.762;2023-05-20T09:04:30;7.33;;;5.27;;
76459;SDS011;65299;46.084;18.762;2023-05-20T09:07:31;7.10;;;5.60;;
76459;SDS011;65299;46.084;18.762;2023-05-20T09:10:32;8.17;;;6.07;;
76459;SDS011;65299;46.084;18.762;2023-05-20T09:13:32;8.02;;;5.53;;
76459;SDS011;65299;46.084;18.762;2023-05-20T09:16:33;9.40;;;6.27;;
76459;SDS011;65299;46.084;18.762;2023-05-20T09:19:34;9.15;;;5.78;;
76459;SDS011;65299;46.084;18.762;2023-05-20T09:22:34;8.73;;;5.93;;
76459;SDS011;65299;46.084;18.762;2023-05-20T09:25:35;8.02;;;5.75;;
76459;SDS011;65299;46.084;18.762;2023-05-20T09:28:36;8.30;;;6.73;;
76459;SDS011;65299;46.084;18.762;2023-05-20T09:31:38;6.93;;;5.65;;
76459;SDS011;65299;46.084;18.762;2023-05-20T09:34:39;8.95;;;6.03;;
76459;SDS011;65299;46.084;18.762;2023-05-20T09:37:44;7.72;;;5.70;;
76459;SDS011;65299;46.084;18.762;2023-05-20T09:40:46;9.73;;;6.07;;
76459;SDS011;65299;46.084;18.762;2023-05-20T09:43:49;10.50;;;5.53;;
76459;SDS011;65299;46.084;18.762;2023-05-20T09:46:51;10.65;;;5.85;;
76459;SDS011;65299;46.084;18.762;2023-05-20T09:49:53;7.38;;;5.45;;
76459;SDS011;65299;46.084;18.762;2023-05-20T09:52:54;9.80;;;5.53;;
76459;SDS011;65299;46.084;18.762;2023-05-20T09:55:56;6.95;;;5.68;;
76459;SDS011;65299;46.084;18.762;2023-05-20T09:58:57;7.50;;;5.25;;
76459;SDS011;65299;46.084;18.762;2023-05-20T10:01:59;7.80;;;5.85;;
76459;SDS011;65299;46.084;18.762;2023-05-20T10:05:00;7.23;;;6.03;;
76459;SDS011;65299;46.084;18.762;2023-05-20T10:14:49;9.02;;;5.63;;
76459;SDS011;65299;46.084;18.762;2023-05-20T10:18:14;9.38;;;5.68;;
76459;SDS011;65299;46.084;18.762;2023-05-20T10:21:25;7.70;;;5.60;;
76459;SDS011;65299;46.084;18.762;2023-05-20T10:24:29;8.52;;;5.55;;
76459;SDS011;65299;46.084;18.762;2023-05-20T10:27:43;6.93;;;5.70;;
76459;SDS011;65299;46.084;18.762;2023-05-20T10:30:50;9.60;;;5.82;;
76459;SDS011;65299;46.084;18.762;2023-05-20T10:33:51;7.13;;;5.43;;
76459;SDS011;65299;46.084;18.762;2023-05-20T10:40:02;8.30;;;5.87;;
76459;SDS011;65299;46.084;18.762;2023-05-20T10:43:09;8.13;;;6.15;;
76459;SDS011;65299;46.084;18.762;2023-05-20T10:46:16;8.07;;;6.28;;
76459;SDS011;65299;46.084;18.762;2023-05-20T10:49:17;8.07;;;5.47;;
76459;SDS011;65299;46.084;18.762;2023-05-20T10:52:19;8.13;;;5.70;;
76459;SDS011;65299;46.084;18.762;2023-05-20T10:55:20;8.55;;;6.00;;
76459;SDS011;65299;46.084;18.762;2023-05-20T10:58:22;8.07;;;5.53;;
76459;SDS011;65299;46.084;18.762;2023-05-20T11:01:24;7.28;;;5.70;;
76459;SDS011;65299;46.084;18.762;2023-05-20T11:04:26;8.82;;;5.75;;
76459;SDS011;65299;46.084;18.762;2023-05-20T11:07:28;6.75;;;5.68;;
76459;SDS011;65299;46.084;18.762;2023-05-20T11:10:32;7.55;;;6.15;;
76459;SDS011;65299;46.084;18.762;2023-05-20T11:13:33;8.27;;;5.60;;
76459;SDS011;65299;46.084;18.762;2023-05-20T11:16:33;7.78;;;6.05;;
76459;SDS011;65299;46.084;18.762;2023-05-20T11:19:35;7.33;;;5.73;;
76459;SDS011;65299;46.084;18.762;2023-05-20T11:22:38;10.40;;;6.40;;
76459;SDS011;65299;46.084;18.762;2023-05-20T11:25:39;6.88;;;5.80;;
76459;SDS011;65299;46.084;18.762;2023-05-20T11:28:39;8.27;;;6.17;;
76459;SDS011;65299;46.084;18.762;2023-05-20T11:31:40;7.28;;;5.72;;
76459;SDS011;65299;46.084;18.762;2023-05-20T11:34:42;8.32;;;6.05;;
76459;SDS011;65299;46.084;18.762;2023-05-20T11:37:42;9.47;;;5.63;;
76459;SDS011;65299;46.084;18.762;2023-05-20T11:40:44;7.70;;;6.30;;
76459;SDS011;65299;46.084;18.762;2023-05-20T11:43:45;10.02;;;5.82;;
76459;SDS011;65299;46.084;18.762;2023-05-20T11:46:46;8.93;;;5.70;;
76459;SDS011;65299;46.084;18.762;2023-05-20T11:49:47;8.25;;;5.75;;
76459;SDS011;65299;46.084;18.762;2023-05-20T11:52:54;8.00;;;5.95;;
76459;SDS011;65299;46.084;18.762;2023-05-20T11:55:58;7.63;;;5.97;;
76459;SDS011;65299;46.084;18.762;2023-05-20T11:58:59;8.23;;;5.45;;
76459;SDS011;65299;46.084;18.762;2023-05-20T12:02:00;10.23;;;5.50;;
76459;SDS011;65299;46.084;18.762;2023-05-20T12:05:00;9.50;;;5.80;;
76459;SDS011;65299;46.084;18.762;2023-05-20T12:08:01;7.37;;;5.80;;
76459;SDS011;65299;46.084;18.762;2023-05-20T12:11:01;9.63;;;6.03;;
76459;SDS011;65299;46.084;18.762;2023-05-20T12:14:02;8.93;;;6.20;;
76459;SDS011;65299;46.084;18.762;2023-05-20T12:17:03;9.25;;;5.70;;
76459;SDS011;65299;46.084;18.762;2023-05-20T12:20:03;7.47;;;5.55;;
76459;SDS011;65299;46.084;18.762;2023-05-20T12:23:06;8.17;;;5.97;;
76459;SDS011;65299;46.084;18.762;2023-05-20T12:26:06;10.10;;;5.78;;
76459;SDS011;65299;46.084;18.762;2023-05-20T12:29:07;10.53;;;5.83;;
76459;SDS011;65299;46.084;18.762;2023-05-20T12:32:07;7.47;;;5.17;;
76459;SDS011;65299;46.084;18.762;2023-05-20T12:35:08;8.03;;;5.60;;
76459;SDS011;65299;46.084;18.762;2023-05-20T12:38:08;8.27;;;6.10;;
76459;SDS011;65299;46.084;18.762;2023-05-20T12:41:09;7.87;;;5.60;;
76459;SDS011;65299;46.084;18.762;2023-05-20T12:44:09;7.72;;;5.80;;
76459;SDS011;65299;46.084;18.762;2023-05-20T12:47:10;9.37;;;5.53;;
76459;SDS011;65299;46.084;18.762;2023-05-20T12:50:10;9.13;;;5.90;;
76459;SDS011;65299;46.084;18.762;2023-05-20T12:53:11;9.53;;;5.60;;
76459;SDS011;65299;46.084;18.762;2023-05-20T12:56:11;8.87;;;6.00;;
76459;SDS011;65299;46.084;18.762;2023-05-20T12:59:12;8.10;;;5.50;;
76459;SDS011;65299;46.084;18.762;2023-05-20T13:02:13;9.52;;;5.80;;
76459;SDS011;65299;46.084;18.762;2023-05-20T13:05:13;10.20;;;5.43;;
76459;SDS011;65299;46.084;18.762;2023-05-20T13:08:14;9.27;;;5.72;;
76459;SDS011;65299;46.084;18.762;2023-05-20T13:11:14;6.17;;;5.40;;
76459;SDS011;65299;46.084;18.762;2023-05-20T13:14:15;8.10;;;5.83;;
76459;SDS011;65299;46.084;18.762;2023-05-20T13:17:16;6.82;;;5.57;;
76459;SDS011;65299;46.084;18.762;2023-05-20T13:20:16;9.70;;;5.70;;
76459;SDS011;65299;46.084;18.762;2023-05-20T13:23:16;7.63;;;5.70;;
76459;SDS011;65299;46.084;18.762;2023-05-20T13:26:17;7.32;;;5.72;;
76459;SDS011;65299;46.084;18.762;2023-05-20T13:29:17;10.90;;;5.80;;
76459;SDS011;65299;46.084;18.762;2023-05-20T13:32:18;6.70;;;5.57;;
76459;SDS011;65299;46.084;18.762;2023-05-20T13:35:18;8.97;;;5.67;;
76459;SDS011;65299;46.084;18.762;2023-05-20T13:38:19;8.88;;;5.72;;
76459;SDS011;65299;46.084;18.762;2023-05-20T13:41:19;7.27;;;5.40;;
76459;SDS011;65299;46.084;18.762;2023-05-20T13:44:20;8.67;;;5.50;;
76459;SDS011;65299;46.084;18.762;2023-05-20T13:47:20;8.23;;;6.20;;
76459;SDS011;65299;46.084;18.762;2023-05-20T13:50:20;8.23;;;5.60;;
76459;SDS011;65299;46.084;18.762;2023-05-20T13:53:21;8.97;;;5.93;;
76459;SDS011;65299;46.084;18.762;2023-05-20T13:56:21;8.50;;;5.90;;
76459;SDS011;65299;46.084;18.762;2023-05-20T13:59:22;12.98;;;5.78;;
76459;SDS011;65299;46.084;18.762;2023-05-20T14:02:22;7.40;;;6.07;;
76459;SDS011;65299;46.084;18.762;2023-05-20T14:05:23;8.23;;;6.23;;
76459;SDS011;65299;46.084;18.762;2023-05-20T14:08:23;9.60;;;5.83;;
76459;SDS011;65299;46.084;18.762;2023-05-20T14:11:24;8.70;;;5.97;;
76459;SDS011;65299;46.084;18.762;2023-05-20T14:14:24;7.83;;;6.30;;
76459;SDS011;65299;46.084;18.762;2023-05-20T14:17:24;8.67;;;5.90;;
76459;SDS011;65299;46.084;18.762;2023-05-20T14:20:25;7.63;;;5.93;;
76459;SDS011;65299;46.084;18.762;2023-05-20T14:23:25;8.63;;;5.85;;
76459;SDS011;65299;46.084;18.762;2023-05-20T14:26:26;7.73;;;5.77;;
76459;SDS011;65299;46.084;18.762;2023-05-20T14:29:26;11.63;;;5.93;;
76459;SDS011;65299;46.084;18.762;2023-05-20T14:32:27;8.40;;;6.27;;
76459;SDS011;65299;46.084;18.762;2023-05-20T14:35:27;9.95;;;6.60;;
76459;SDS011;65299;46.084;18.762;2023-05-20T14:38:28;9.57;;;6.17;;
76459;SDS011;65299;46.084;18.762;2023-05-20T14:41:28;7.40;;;6.33;;
76459;SDS011;65299;46.084;18.762;2023-05-20T14:44:29;8.88;;;6.97;;
76459;SDS011;65299;46.084;18.762;2023-05-20T14:47:29;7.37;;;6.57;;
76459;SDS011;65299;46.084;18.762;2023-05-20T14:50:30;7.20;;;6.30;;
76459;SDS011;65299;46.084;18.762;2023-05-20T14:53:30;8.88;;;6.80;;
76459;SDS011;65299;46.084;18.762;2023-05-20T14:56:30;8.03;;;6.57;;
76459;SDS011;65299;46.084;18.762;2023-05-20T14:59:31;10.27;;;6.63;;
76459;SDS011;65299;46.084;18.762;2023-05-20T15:02:32;9.63;;;6.90;;
76459;SDS011;65299;46.084;18.762;2023-05-20T15:05:32;9.70;;;6.50;;
76459;SDS011;65299;46.084;18.762;2023-05-20T15:08:32;9.67;;;6.80;;
76459;SDS011;65299;46.084;18.762;2023-05-20T15:11:33;9.53;;;6.17;;
76459;SDS011;65299;46.084;18.762;2023-05-20T15:14:33;10.02;;;6.90;;
76459;SDS011;65299;46.084;18.762;2023-05-20T15:17:34;7.77;;;5.90;;
76459;SDS011;65299;46.084;18.762;2023-05-20T15:20:34;8.23;;;6.10;;
76459;SDS011;65299;46.084;18.762;2023-05-20T15:23:35;7.63;;;6.27;;
76459;SDS011;65299;46.084;18.762;2023-05-20T15:26:35;10.30;;;6.45;;
76459;SDS011;65299;46.084;18.762;2023-05-20T15:29:37;10.23;;;6.87;;
76459;SDS011;65299;46.084;18.762;2023-05-20T15:32:37;7.63;;;6.78;;
76459;SDS011;65299;46.084;18.762;2023-05-20T15:35:38;8.70;;;6.60;;
76459;SDS011;65299;46.084;18.762;2023-05-20T15:38:39;8.93;;;6.70;;
76459;SDS011;65299;46.084;18.762;2023-05-20T15:41:39;9.13;;;6.43;;
76459;SDS011;65299;46.084;18.762;2023-05-20T15:44:41;10.55;;;7.18;;
76459;SDS011;65299;46.084;18.762;2023-05-20T15:47:41;12.03;;;6.70;;
76459;SDS011;65299;46.084;18.762;2023-05-20T15:50:42;9.07;;;6.47;;
76459;SDS011;65299;46.084;18.762;2023-05-20T15:53:42;9.43;;;7.18;;
76459;SDS011;65299;46.084;18.762;2023-05-20T15:56:43;11.83;;;7.93;;
76459;SDS011;65299;46.084;18.762;2023-05-20T15:59:43;11.80;;;6.90;;
76459;SDS011;65299;46.084;18.762;2023-05-20T16:02:43;12.40;;;6.68;;
76459;SDS011;65299;46.084;18.762;2023-05-20T16:05:45;9.23;;;6.77;;
76459;SDS011;65299;46.084;18.762;2023-05-20T16:08:45;8.60;;;6.72;;
76459;SDS011;65299;46.084;18.762;2023-05-20T16:11:45;8.77;;;6.30;;
76459;SDS011;65299;46.084;18.762;2023-05-20T16:14:46;8.33;;;6.30;;
76459;SDS011;65299;46.084;18.762;2023-05-20T16:17:46;9.90;;;6.07;;
76459;SDS011;65299;46.084;18.762;2023-05-20T16:20:47;8.77;;;6.13;;
76459;SDS011;65299;46.084;18.762;2023-05-20T16:23:47;7.53;;;5.80;;
76459;SDS011;65299;46.084;18.762;2023-05-20T16:26:47;8.17;;;5.87;;
76459;SDS011;65299;46.084;18.762;2023-05-20T16:29:48;9.63;;;6.20;;
76459;SDS011;65299;46.084;18.762;2023-05-20T16:32:49;10.48;;;6.28;;
76459;SDS011;65299;46.084;18.762;2023-05-20T16:35:50;11.00;;;6.63;;
76459;SDS011;65299;46.084;18.762;2023-05-20T16:38:50;9.30;;;6.05;;
76459;SDS011;65299;46.084;18.762;2023-05-20T16:41:51;7.50;;;6.17;;
76459;SDS011;65299;46.084;18.762;2023-05-20T16:44:51;9.43;;;6.07;;
76459;SDS011;65299;46.084;18.762;2023-05-20T16:47:52;11.07;;;6.45;;
76459;SDS011;65299;46.084;18.762;2023-05-20T16:50:52;9.03;;;6.27;;
76459;SDS011;65299;46.084;18.762;2023-05-20T16:53:53;9.47;;;6.97;;
76459;SDS011;65299;46.084;18.762;2023-05-20T16:56:53;9.68;;;6.40;;
76459;SDS011;65299;46.084;18.762;2023-05-20T16:59:53;9.13;;;6.80;;
76459;SDS011;65299;46.084;18.762;2023-05-20T17:02:54;9.03;;;6.60;;
76459;SDS011;65299;46.084;18.762;2023-05-20T17:05:55;11.23;;;6.13;;
76459;SDS011;65299;46.084;18.762;2023-05-20T17:08:56;10.47;;;6.40;;
76459;SDS011;65299;46.084;18.762;2023-05-20T17:11:56;7.85;;;6.53;;
76459;SDS011;65299;46.084;18.762;2023-05-20T17:14:57;9.53;;;6.10;;
76459;SDS011;65299;46.084;18.762;2023-05-20T17:17:57;8.50;;;6.57;;
76459;SDS011;65299;46.084;18.762;2023-05-20T17:20:57;9.03;;;6.40;;
76459;SDS011;65299;46.084;18.762;2023-05-20T17:23:58;12.82;;;6.88;;
76459;SDS011;65299;46.084;18.762;2023-05-20T17:26:58;13.87;;;6.47;;
76459;SDS011;65299;46.084;18.762;2023-05-20T17:29:59;9.93;;;6.20;;
76459;SDS011;65299;46.084;18.762;2023-05-20T17:32:59;9.93;;;6.57;;
76459;SDS011;65299;46.084;18.762;2023-05-20T17:36:00;10.50;;;6.77;;
76459;SDS011;65299;46.084;18.762;2023-05-20T17:39:01;9.68;;;6.60;;
76459;SDS011;65299;46.084;18.762;2023-05-20T17:42:03;9.43;;;6.10;;
76459;SDS011;65299;46.084;18.762;2023-05-20T17:45:04;8.23;;;6.27;;
76459;SDS011;65299;46.084;18.762;2023-05-20T17:48:05;9.67;;;5.97;;
76459;SDS011;65299;46.084;18.762;2023-05-20T17:51:06;8.63;;;6.20;;
76459;SDS011;65299;46.084;18.762;2023-05-20T17:54:06;8.50;;;6.23;;
76459;SDS011;65299;46.084;18.762;2023-05-20T17:57:07;9.07;;;5.97;;